sensor_id;sensor_type;location;lat;lon;timestamp;pressure;altitude;pressure_sealevel;temperature;humidity
41703;BME280;861;48.808;9.006;2022-07-15T00:00:03;97404.84;;;21.67;49.36
41703;BME280;861;48.808;9.006;2022-07-15T00:02:34;97412.84;;;21.65;49.08
41703;BME280;861;48.808;9.006;2022-07-15T00:05:01;97411.75;;;21.63;49.75
41703;BME280;861;48.808;9.006;2022-07-15T00:07:27;97417.41;;;21.59;49.44
41703;BME280;861;48.808;9.006;2022-07-15T00:09:53;97418.19;;;21.60;49.37
41703;BME280;861;48.808;9.006;2022-07-15T00:12:38;97414.91;;;21.52;48.73
41703;BME280;861;48.808;9.006;2022-07-15T00:15:05;97417.78;;;21.49;48.85
41703;BME280;861;48.808;9.006;2022-07-15T00:17:31;97419.47;;;21.46;49.62
41703;BME280;861;48.808;9.006;2022-07-15T00:19:57;97419.56;;;21.43;49.18
41703;BME280;861;48.808;9.006;2022-07-15T00:22:24;97409.88;;;21.26;49.86
41703;BME280;861;48.808;9.006;2022-07-15T00:24:50;97411.06;;;21.24;50.48
41703;BME280;861;48.808;9.006;2022-07-15T00:27:16;97413.84;;;21.24;49.62
41703;BME280;861;48.808;9.006;2022-07-15T00:29:43;97405.03;;;21.04;49.60
41703;BME280;861;48.808;9.006;2022-07-15T00:32:10;97403.69;;;20.84;50.05
41703;BME280;861;48.808;9.006;2022-07-15T00:34:36;97408.31;;;20.87;49.84
41703;BME280;861;48.808;9.006;2022-07-15T00:37:04;97402.59;;;20.69;50.15
41703;BME280;861;48.808;9.006;2022-07-15T00:39:31;97410.22;;;20.77;50.72
41703;BME280;861;48.808;9.006;2022-07-15T00:41:57;97402.59;;;20.81;50.25
41703;BME280;861;48.808;9.006;2022-07-15T00:44:23;97408.78;;;20.85;50.58
41703;BME280;861;48.808;9.006;2022-07-15T00:46:52;97408.31;;;20.87;51.11
41703;BME280;861;48.808;9.006;2022-07-15T00:49:20;97407.44;;;20.77;50.94
41703;BME280;861;48.808;9.006;2022-07-15T00:51:51;97410.00;;;20.72;51.55
41703;BME280;861;48.808;9.006;2022-07-15T00:54:28;97401.25;;;20.73;51.56
41703;BME280;861;48.808;9.006;2022-07-15T00:56:57;97411.19;;;20.46;51.52
41703;BME280;861;48.808;9.006;2022-07-15T00:59:32;97402.78;;;20.49;51.06
41703;BME280;861;48.808;9.006;2022-07-15T01:02:02;97399.13;;;20.40;50.96
41703;BME280;861;48.808;9.006;2022-07-15T01:04:33;97397.59;;;20.39;51.41
41703;BME280;861;48.808;9.006;2022-07-15T01:07:00;97395.03;;;20.44;51.95
41703;BME280;861;48.808;9.006;2022-07-15T01:09:26;97399.03;;;20.43;52.41
41703;BME280;861;48.808;9.006;2022-07-15T01:11:53;97402.69;;;20.40;52.84
41703;BME280;861;48.808;9.006;2022-07-15T01:14:19;97408.53;;;20.42;52.92
41703;BME280;861;48.808;9.006;2022-07-15T01:16:45;97408.44;;;20.46;52.85
41703;BME280;861;48.808;9.006;2022-07-15T01:19:12;97411.72;;;20.41;52.06
41703;BME280;861;48.808;9.006;2022-07-15T01:21:38;97407.22;;;20.47;52.92
41703;BME280;861;48.808;9.006;2022-07-15T01:24:05;97413.41;;;20.51;52.82
41703;BME280;861;48.808;9.006;2022-07-15T01:26:31;97406.66;;;20.52;52.81
41703;BME280;861;48.808;9.006;2022-07-15T01:28:57;97409.22;;;20.46;52.88
41703;BME280;861;48.808;9.006;2022-07-15T01:31:24;97408.44;;;20.46;53.50
41703;BME280;861;48.808;9.006;2022-07-15T01:33:50;97417.72;;;20.52;53.72
41703;BME280;861;48.808;9.006;2022-07-15T01:36:20;97408.88;;;20.44;53.27
41703;BME280;861;48.808;9.006;2022-07-15T01:38:46;97410.63;;;20.38;53.56
41703;BME280;861;48.808;9.006;2022-07-15T01:41:14;97418.28;;;20.34;54.03
41703;BME280;861;48.808;9.006;2022-07-15T01:43:41;97422.78;;;20.28;54.73
41703;BME280;861;48.808;9.006;2022-07-15T01:46:07;97418.47;;;20.27;54.44
41703;BME280;861;48.808;9.006;2022-07-15T01:48:33;97419.78;;;20.23;54.38
41703;BME280;861;48.808;9.006;2022-07-15T01:51:18;97410.72;;;20.22;53.92
41703;BME280;861;48.808;9.006;2022-07-15T01:53:44;97413.03;;;20.24;54.40
41703;BME280;861;48.808;9.006;2022-07-15T01:56:10;97417.47;;;20.21;54.70
41703;BME280;861;48.808;9.006;2022-07-15T01:58:37;97409.97;;;20.22;54.18
41703;BME280;861;48.808;9.006;2022-07-15T02:01:03;97410.16;;;20.15;53.75
41703;BME280;861;48.808;9.006;2022-07-15T02:03:29;97415.09;;;20.07;54.72
41703;BME280;861;48.808;9.006;2022-07-15T02:05:56;97420.03;;;20.00;54.46
41703;BME280;861;48.808;9.006;2022-07-15T02:08:22;97409.97;;;19.93;55.02
41703;BME280;861;48.808;9.006;2022-07-15T02:10:48;97410.28;;;19.95;55.54
41703;BME280;861;48.808;9.006;2022-07-15T02:13:15;97412.03;;;19.89;55.64
41703;BME280;861;48.808;9.006;2022-07-15T02:15:41;97408.38;;;19.63;56.52
41703;BME280;861;48.808;9.006;2022-07-15T02:18:08;97408.56;;;19.72;56.30
41703;BME280;861;48.808;9.006;2022-07-15T02:20:37;97409.31;;;19.73;56.42
41703;BME280;861;48.808;9.006;2022-07-15T02:23:04;97402.81;;;19.79;56.51
41703;BME280;861;48.808;9.006;2022-07-15T02:25:34;97402.91;;;19.76;56.62
41703;BME280;861;48.808;9.006;2022-07-15T02:28:05;97398.69;;;19.71;55.56
41703;BME280;861;48.808;9.006;2022-07-15T02:30:42;97406.19;;;19.58;56.03
41703;BME280;861;48.808;9.006;2022-07-15T02:33:10;97402.84;;;19.35;56.12
41703;BME280;861;48.808;9.006;2022-07-15T02:35:41;97407.16;;;19.04;57.14
41703;BME280;861;48.808;9.006;2022-07-15T02:38:08;97410.59;;;18.92;57.45
41703;BME280;861;48.808;9.006;2022-07-15T02:40:35;97407.91;;;18.72;57.75
41703;BME280;861;48.808;9.006;2022-07-15T02:43:03;97411.28;;;18.64;58.13
41703;BME280;861;48.808;9.006;2022-07-15T02:45:36;97415.44;;;18.72;58.38
41703;BME280;861;48.808;9.006;2022-07-15T02:48:04;97413.97;;;18.67;57.99
41703;BME280;861;48.808;9.006;2022-07-15T02:50:33;97417.16;;;18.66;57.95
41703;BME280;861;48.808;9.006;2022-07-15T02:53:03;97417.97;;;18.63;58.50
41703;BME280;861;48.808;9.006;2022-07-15T02:55:30;97410.97;;;18.42;58.60
41703;BME280;861;48.808;9.006;2022-07-15T02:57:56;97417.91;;;18.30;58.74
41703;BME280;861;48.808;9.006;2022-07-15T03:00:22;97418.75;;;18.27;59.08
41703;BME280;861;48.808;9.006;2022-07-15T03:02:50;97422.09;;;18.39;58.58
41703;BME280;861;48.808;9.006;2022-07-15T03:05:18;97426.09;;;18.34;58.50
41703;BME280;861;48.808;9.006;2022-07-15T03:07:45;97430.09;;;18.29;57.98
41703;BME280;861;48.808;9.006;2022-07-15T03:10:13;97427.31;;;18.13;58.68
41703;BME280;861;48.808;9.006;2022-07-15T03:12:39;97437.84;;;17.99;58.86
41703;BME280;861;48.808;9.006;2022-07-15T03:15:07;97430.38;;;17.99;59.23
41703;BME280;861;48.808;9.006;2022-07-15T03:17:34;97434.50;;;18.07;58.40
41703;BME280;861;48.808;9.006;2022-07-15T03:20:00;97437.78;;;18.02;58.44
41703;BME280;861;48.808;9.006;2022-07-15T03:22:26;97431.84;;;18.04;58.29
41703;BME280;861;48.808;9.006;2022-07-15T03:24:55;97432.19;;;18.06;57.83
41703;BME280;861;48.808;9.006;2022-07-15T03:27:22;97426.63;;;17.90;58.24
41703;BME280;861;48.808;9.006;2022-07-15T03:29:48;97432.19;;;17.86;58.55
41703;BME280;861;48.808;9.006;2022-07-15T03:32:15;97441.31;;;17.83;59.15
41703;BME280;861;48.808;9.006;2022-07-15T03:34:42;97428.38;;;17.80;59.27
41703;BME280;861;48.808;9.006;2022-07-15T03:37:09;97431.13;;;17.80;59.32
41703;BME280;861;48.808;9.006;2022-07-15T03:39:35;97429.88;;;17.85;58.79
41703;BME280;861;48.808;9.006;2022-07-15T03:42:02;97437.06;;;17.79;59.22
41703;BME280;861;48.808;9.006;2022-07-15T03:44:28;97429.22;;;17.77;59.99
41703;BME280;861;48.808;9.006;2022-07-15T03:46:54;97435.66;;;17.71;60.35
41703;BME280;861;48.808;9.006;2022-07-15T03:49:20;97431.31;;;17.70;60.07
41703;BME280;861;48.808;9.006;2022-07-15T03:51:47;97433.16;;;17.76;60.11
41703;BME280;861;48.808;9.006;2022-07-15T03:54:13;97426.81;;;17.79;60.33
41703;BME280;861;48.808;9.006;2022-07-15T03:56:41;97440.25;;;17.77;60.42
41703;BME280;861;48.808;9.006;2022-07-15T03:59:07;97436.28;;;17.78;61.00
41703;BME280;861;48.808;9.006;2022-07-15T04:01:33;97443.06;;;17.74;60.89
41703;BME280;861;48.808;9.006;2022-07-15T04:04:00;97439.47;;;17.77;60.51
41703;BME280;861;48.808;9.006;2022-07-15T04:06:26;97446.09;;;17.79;60.87
41703;BME280;861;48.808;9.006;2022-07-15T04:08:52;97446.56;;;17.74;60.79
41703;BME280;861;48.808;9.006;2022-07-15T04:11:19;97443.53;;;17.69;60.86
41703;BME280;861;48.808;9.006;2022-07-15T04:13:46;97449.75;;;17.73;60.92
41703;BME280;861;48.808;9.006;2022-07-15T04:16:13;97444.97;;;17.77;60.63
41703;BME280;861;48.808;9.006;2022-07-15T04:18:40;97445.09;;;17.70;61.00
41703;BME280;861;48.808;9.006;2022-07-15T04:21:06;97448.69;;;17.67;61.00
41703;BME280;861;48.808;9.006;2022-07-15T04:23:32;97453.50;;;17.63;60.88
41703;BME280;861;48.808;9.006;2022-07-15T04:25:59;97451.09;;;17.65;60.62
41703;BME280;861;48.808;9.006;2022-07-15T04:28:26;97452.50;;;17.53;61.19
41703;BME280;861;48.808;9.006;2022-07-15T04:30:53;97450.84;;;17.56;61.12
41703;BME280;861;48.808;9.006;2022-07-15T04:33:20;97458.38;;;17.55;61.46
41703;BME280;861;48.808;9.006;2022-07-15T04:35:47;97448.94;;;17.53;61.00
41703;BME280;861;48.808;9.006;2022-07-15T04:38:14;97453.19;;;17.57;61.63
41703;BME280;861;48.808;9.006;2022-07-15T04:40:41;97447.09;;;17.69;61.73
41703;BME280;861;48.808;9.006;2022-07-15T04:43:08;97446.66;;;17.71;61.95
41703;BME280;861;48.808;9.006;2022-07-15T04:45:35;97451.25;;;17.77;61.92
41703;BME280;861;48.808;9.006;2022-07-15T04:48:03;97453.19;;;17.80;61.98
41703;BME280;861;48.808;9.006;2022-07-15T04:50:50;97451.47;;;17.86;61.86
41703;BME280;861;48.808;9.006;2022-07-15T04:53:20;97447.94;;;17.86;61.57
41703;BME280;861;48.808;9.006;2022-07-15T04:55:48;97446.81;;;17.83;61.49
41703;BME280;861;48.808;9.006;2022-07-15T04:58:15;97443.50;;;17.92;61.65
41703;BME280;861;48.808;9.006;2022-07-15T05:00:45;97444.56;;;17.98;61.64
41703;BME280;861;48.808;9.006;2022-07-15T05:03:13;97449.00;;;17.92;61.99
41703;BME280;861;48.808;9.006;2022-07-15T05:05:40;97458.16;;;17.85;62.75
41703;BME280;861;48.808;9.006;2022-07-15T05:08:07;97451.75;;;17.92;62.68
41703;BME280;861;48.808;9.006;2022-07-15T05:10:34;97452.25;;;17.87;62.83
41703;BME280;861;48.808;9.006;2022-07-15T05:13:03;97447.88;;;17.89;63.39
41703;BME280;861;48.808;9.006;2022-07-15T05:15:29;97452.53;;;17.92;63.07
41703;BME280;861;48.808;9.006;2022-07-15T05:17:55;97450.78;;;18.02;62.91
41703;BME280;861;48.808;9.006;2022-07-15T05:20:22;97458.47;;;17.91;63.45
41703;BME280;861;48.808;9.006;2022-07-15T05:22:49;97456.13;;;18.09;62.95
41703;BME280;861;48.808;9.006;2022-07-15T05:25:16;97458.03;;;18.31;62.58
41703;BME280;861;48.808;9.006;2022-07-15T05:27:42;97463.06;;;18.56;61.92
41703;BME280;861;48.808;9.006;2022-07-15T05:30:09;97457.13;;;18.74;61.47
41703;BME280;861;48.808;9.006;2022-07-15T05:32:39;97457.34;;;18.83;61.04
41703;BME280;861;48.808;9.006;2022-07-15T05:35:06;97471.56;;;18.97;60.55
41703;BME280;861;48.808;9.006;2022-07-15T05:37:33;97467.44;;;19.05;60.19
41703;BME280;861;48.808;9.006;2022-07-15T05:40:04;97461.91;;;19.05;59.77
41703;BME280;861;48.808;9.006;2022-07-15T05:42:34;97462.47;;;19.00;60.07
41703;BME280;861;48.808;9.006;2022-07-15T05:45:01;97459.59;;;19.04;60.08
41703;BME280;861;48.808;9.006;2022-07-15T05:47:28;97461.19;;;19.21;58.69
41703;BME280;861;48.808;9.006;2022-07-15T05:49:55;97463.34;;;19.29;58.87
41703;BME280;861;48.808;9.006;2022-07-15T05:52:22;97466.38;;;19.35;59.09
41703;BME280;861;48.808;9.006;2022-07-15T05:54:48;97469.47;;;19.53;57.70
41703;BME280;861;48.808;9.006;2022-07-15T05:57:14;97469.88;;;19.67;57.41
41703;BME280;861;48.808;9.006;2022-07-15T05:59:40;97474.00;;;19.75;57.23
41703;BME280;861;48.808;9.006;2022-07-15T06:02:07;97462.88;;;19.79;57.35
41703;BME280;861;48.808;9.006;2022-07-15T06:04:33;97470.53;;;19.88;57.15
41703;BME280;861;48.808;9.006;2022-07-15T06:06:59;97463.84;;;20.01;56.92
41703;BME280;861;48.808;9.006;2022-07-15T06:09:25;97466.56;;;20.17;56.28
41703;BME280;861;48.808;9.006;2022-07-15T06:11:51;97464.50;;;20.21;56.60
41703;BME280;861;48.808;9.006;2022-07-15T06:14:17;97476.03;;;20.32;53.56
41703;BME280;861;48.808;9.006;2022-07-15T06:16:43;97475.13;;;20.35;53.05
41703;BME280;861;48.808;9.006;2022-07-15T06:19:09;97470.81;;;20.22;53.89
41703;BME280;861;48.808;9.006;2022-07-15T06:21:36;97469.50;;;20.39;54.27
41703;BME280;861;48.808;9.006;2022-07-15T06:24:03;97473.44;;;20.66;52.56
41703;BME280;861;48.808;9.006;2022-07-15T06:26:30;97466.91;;;20.73;52.06
41703;BME280;861;48.808;9.006;2022-07-15T06:28:56;97472.09;;;20.83;51.76
41703;BME280;861;48.808;9.006;2022-07-15T06:31:22;97470.22;;;20.80;50.80
41703;BME280;861;48.808;9.006;2022-07-15T06:33:49;97465.81;;;20.83;51.33
41703;BME280;861;48.808;9.006;2022-07-15T06:36:15;97465.25;;;20.88;51.03
41703;BME280;861;48.808;9.006;2022-07-15T06:38:41;97460.50;;;21.01;51.47
41703;BME280;861;48.808;9.006;2022-07-15T06:41:07;97462.81;;;21.15;50.29
41703;BME280;861;48.808;9.006;2022-07-15T06:43:34;97472.72;;;21.03;49.15
41703;BME280;861;48.808;9.006;2022-07-15T06:46:03;97465.06;;;21.07;49.45
41703;BME280;861;48.808;9.006;2022-07-15T06:48:29;97468.34;;;21.27;49.85
41703;BME280;861;48.808;9.006;2022-07-15T06:50:55;97459.91;;;21.44;49.46
41703;BME280;861;48.808;9.006;2022-07-15T06:53:22;97465.22;;;21.51;49.45
41703;BME280;861;48.808;9.006;2022-07-15T06:55:48;97468.50;;;21.71;49.26
41703;BME280;861;48.808;9.006;2022-07-15T06:58:14;97469.06;;;22.00;47.84
41703;BME280;861;48.808;9.006;2022-07-15T07:00:41;97472.94;;;21.81;48.68
41703;BME280;861;48.808;9.006;2022-07-15T07:03:07;97473.34;;;21.92;48.42
41703;BME280;861;48.808;9.006;2022-07-15T07:05:33;97469.84;;;22.00;48.31
41703;BME280;861;48.808;9.006;2022-07-15T07:08:00;97466.56;;;22.14;47.65
41703;BME280;861;48.808;9.006;2022-07-15T07:10:26;97461.41;;;22.04;47.68
41703;BME280;861;48.808;9.006;2022-07-15T07:12:53;97461.16;;;22.32;47.64
41703;BME280;861;48.808;9.006;2022-07-15T07:15:19;97461.97;;;22.54;46.72
41703;BME280;861;48.808;9.006;2022-07-15T07:17:47;97463.03;;;22.57;46.90
41703;BME280;861;48.808;9.006;2022-07-15T07:20:14;97459.69;;;22.40;47.59
41703;BME280;861;48.808;9.006;2022-07-15T07:22:40;97465.84;;;22.66;45.93
41703;BME280;861;48.808;9.006;2022-07-15T07:25:07;97463.28;;;22.72;45.31
41703;BME280;861;48.808;9.006;2022-07-15T07:27:34;97472.31;;;22.85;44.79
41703;BME280;861;48.808;9.006;2022-07-15T07:30:02;97465.81;;;22.79;44.81
41703;BME280;861;48.808;9.006;2022-07-15T07:32:31;97461.72;;;23.01;43.50
41703;BME280;861;48.808;9.006;2022-07-15T07:34:58;97463.81;;;22.88;45.34
41703;BME280;861;48.808;9.006;2022-07-15T07:37:25;97468.78;;;22.93;43.71
41703;BME280;861;48.808;9.006;2022-07-15T07:39:53;97466.47;;;22.92;44.45
41703;BME280;861;48.808;9.006;2022-07-15T07:42:19;97465.84;;;22.88;45.27
41703;BME280;861;48.808;9.006;2022-07-15T07:44:46;97452.09;;;22.93;45.13
41703;BME280;861;48.808;9.006;2022-07-15T07:47:12;97459.88;;;23.07;44.66
41703;BME280;861;48.808;9.006;2022-07-15T07:49:38;97464.16;;;23.30;43.20
41703;BME280;861;48.808;9.006;2022-07-15T07:52:05;97455.09;;;23.47;43.81
41703;BME280;861;48.808;9.006;2022-07-15T07:54:32;97456.19;;;23.50;43.97
41703;BME280;861;48.808;9.006;2022-07-15T07:56:59;97453.75;;;23.79;42.73
41703;BME280;861;48.808;9.006;2022-07-15T07:59:26;97459.00;;;23.86;42.36
41703;BME280;861;48.808;9.006;2022-07-15T08:01:52;97454.41;;;24.01;41.91
41703;BME280;861;48.808;9.006;2022-07-15T08:04:18;97452.97;;;23.87;42.13
41703;BME280;861;48.808;9.006;2022-07-15T08:06:44;97451.78;;;23.97;41.34
41703;BME280;861;48.808;9.006;2022-07-15T08:09:10;97457.34;;;24.06;42.17
41703;BME280;861;48.808;9.006;2022-07-15T08:11:37;97448.53;;;24.08;41.19
41703;BME280;861;48.808;9.006;2022-07-15T08:14:03;97446.34;;;24.39;40.22
41703;BME280;861;48.808;9.006;2022-07-15T08:16:30;97454.06;;;24.35;39.48
41703;BME280;861;48.808;9.006;2022-07-15T08:18:58;97457.03;;;24.23;41.24
41703;BME280;861;48.808;9.006;2022-07-15T08:21:25;97456.53;;;24.33;40.31
41703;BME280;861;48.808;9.006;2022-07-15T08:23:51;97444.78;;;24.38;39.93
41703;BME280;861;48.808;9.006;2022-07-15T08:26:17;97439.06;;;24.33;40.72
41703;BME280;861;48.808;9.006;2022-07-15T08:28:50;97442.66;;;24.15;40.75
41703;BME280;861;48.808;9.006;2022-07-15T08:31:19;97452.38;;;24.20;40.74
41703;BME280;861;48.808;9.006;2022-07-15T08:33:45;97446.50;;;24.27;40.86
41703;BME280;861;48.808;9.006;2022-07-15T08:36:12;97435.66;;;24.47;40.87
41703;BME280;861;48.808;9.006;2022-07-15T08:38:39;97443.66;;;24.54;40.61
41703;BME280;861;48.808;9.006;2022-07-15T08:41:06;97441.06;;;24.41;40.28
41703;BME280;861;48.808;9.006;2022-07-15T08:43:32;97447.84;;;24.58;40.91
41703;BME280;861;48.808;9.006;2022-07-15T08:45:59;97450.16;;;24.60;40.87
41703;BME280;861;48.808;9.006;2022-07-15T08:48:28;97445.03;;;24.76;38.93
41703;BME280;861;48.808;9.006;2022-07-15T08:51:02;97452.25;;;24.92;39.90
41703;BME280;861;48.808;9.006;2022-07-15T08:53:30;97451.66;;;24.88;39.74
41703;BME280;861;48.808;9.006;2022-07-15T08:56:00;97446.44;;;24.72;38.99
41703;BME280;861;48.808;9.006;2022-07-15T08:58:27;97451.69;;;24.61;39.13
41703;BME280;861;48.808;9.006;2022-07-15T09:00:53;97457.41;;;24.75;39.22
41703;BME280;861;48.808;9.006;2022-07-15T09:03:20;97453.13;;;24.98;38.53
41703;BME280;861;48.808;9.006;2022-07-15T09:05:46;97449.81;;;25.17;39.22
41703;BME280;861;48.808;9.006;2022-07-15T09:08:17;97450.19;;;25.43;37.58
41703;BME280;861;48.808;9.006;2022-07-15T09:10:57;97457.38;;;25.26;37.40
41703;BME280;861;48.808;9.006;2022-07-15T09:16:14;97455.81;;;25.25;38.91
41703;BME280;861;48.808;9.006;2022-07-15T09:18:50;97450.47;;;25.45;38.05
41703;BME280;861;48.808;9.006;2022-07-15T09:21:26;97452.09;;;25.61;38.73
41703;BME280;861;48.808;9.006;2022-07-15T09:23:54;97450.69;;;25.80;38.27
41703;BME280;861;48.808;9.006;2022-07-15T09:26:29;97455.66;;;25.99;38.95
41703;BME280;861;48.808;9.006;2022-07-15T09:28:59;97458.84;;;25.92;38.30
41703;BME280;861;48.808;9.006;2022-07-15T09:31:38;97448.50;;;26.07;38.33
41703;BME280;861;48.808;9.006;2022-07-15T09:34:25;97451.38;;;26.13;37.67
41703;BME280;861;48.808;9.006;2022-07-15T09:36:54;97452.84;;;26.23;37.23
41703;BME280;861;48.808;9.006;2022-07-15T09:39:24;97453.94;;;26.40;37.22
41703;BME280;861;48.808;9.006;2022-07-15T09:41:52;97457.69;;;26.37;37.31
41703;BME280;861;48.808;9.006;2022-07-15T09:44:23;97465.25;;;26.60;36.86
41703;BME280;861;48.808;9.006;2022-07-15T09:47:01;97456.13;;;26.74;37.78
41703;BME280;861;48.808;9.006;2022-07-15T09:52:09;97458.31;;;26.84;36.65
41703;BME280;861;48.808;9.006;2022-07-15T09:54:47;97465.31;;;26.51;36.57
41703;BME280;861;48.808;9.006;2022-07-15T09:57:18;97459.50;;;26.11;37.72
41703;BME280;861;48.808;9.006;2022-07-15T09:59:48;97458.88;;;26.07;38.27
41703;BME280;861;48.808;9.006;2022-07-15T10:02:18;97456.75;;;26.54;36.85
41703;BME280;861;48.808;9.006;2022-07-15T10:04:44;97462.84;;;26.82;37.37
41703;BME280;861;48.808;9.006;2022-07-15T10:07:13;97462.56;;;26.94;37.09
41703;BME280;861;48.808;9.006;2022-07-15T10:09:40;97461.66;;;27.03;35.85
41703;BME280;861;48.808;9.006;2022-07-15T10:12:21;97466.97;;;27.01;37.54
41703;BME280;861;48.808;9.006;2022-07-15T10:15:24;97459.34;;;27.16;37.68
41703;BME280;861;48.808;9.006;2022-07-15T10:21:38;97454.69;;;27.62;37.38
41703;BME280;861;48.808;9.006;2022-07-15T10:25:02;97451.13;;;28.02;35.70
41703;BME280;861;48.808;9.006;2022-07-15T10:27:58;97447.94;;;27.89;36.70
41703;BME280;861;48.808;9.006;2022-07-15T10:30:26;97448.91;;;28.06;35.93
41703;BME280;861;48.808;9.006;2022-07-15T10:33:16;97447.78;;;27.98;35.26
41703;BME280;861;48.808;9.006;2022-07-15T10:36:08;97446.38;;;27.19;35.71
41703;BME280;861;48.808;9.006;2022-07-15T10:38:38;97447.00;;;27.08;36.66
41703;BME280;861;48.808;9.006;2022-07-15T10:41:14;97436.72;;;27.34;35.86
41703;BME280;861;48.808;9.006;2022-07-15T10:43:52;97434.72;;;27.35;37.15
41703;BME280;861;48.808;9.006;2022-07-15T10:46:29;97434.75;;;27.75;38.19
41703;BME280;861;48.808;9.006;2022-07-15T10:54:10;97419.56;;;28.73;35.40
41703;BME280;861;48.808;9.006;2022-07-15T10:56:47;97417.00;;;28.75;35.48
41703;BME280;861;48.808;9.006;2022-07-15T10:59:24;97412.88;;;29.01;34.45
41703;BME280;861;48.808;9.006;2022-07-15T11:02:16;97406.66;;;29.17;35.25
41703;BME280;861;48.808;9.006;2022-07-15T11:04:46;97406.22;;;29.30;34.00
41703;BME280;861;48.808;9.006;2022-07-15T11:15:11;97404.13;;;29.25;33.76
41703;BME280;861;48.808;9.006;2022-07-15T11:17:45;97409.06;;;29.35;34.27
41703;BME280;861;48.808;9.006;2022-07-15T11:20:23;97403.66;;;28.95;34.40
41703;BME280;861;48.808;9.006;2022-07-15T11:22:56;97394.00;;;28.96;34.77
41703;BME280;861;48.808;9.006;2022-07-15T11:28:26;97398.69;;;28.79;34.11
41703;BME280;861;48.808;9.006;2022-07-15T11:30:55;97396.19;;;28.30;35.76
41703;BME280;861;48.808;9.006;2022-07-15T11:33:25;97385.81;;;28.10;35.88
41703;BME280;861;48.808;9.006;2022-07-15T11:36:00;97401.66;;;27.93;35.80
41703;BME280;861;48.808;9.006;2022-07-15T11:38:37;97397.22;;;28.07;35.44
41703;BME280;861;48.808;9.006;2022-07-15T11:41:06;97407.41;;;28.30;36.92
41703;BME280;861;48.808;9.006;2022-07-15T11:44:18;97396.69;;;28.28;36.14
41703;BME280;861;48.808;9.006;2022-07-15T11:47:00;97403.16;;;28.40;35.36
41703;BME280;861;48.808;9.006;2022-07-15T11:49:38;97396.94;;;28.30;35.11
41703;BME280;861;48.808;9.006;2022-07-15T11:52:11;97405.53;;;28.47;35.70
41703;BME280;861;48.808;9.006;2022-07-15T11:54:41;97400.03;;;28.07;35.40
41703;BME280;861;48.808;9.006;2022-07-15T11:57:11;97395.47;;;28.09;36.46
41703;BME280;861;48.808;9.006;2022-07-15T11:59:40;97390.88;;;28.58;35.58
41703;BME280;861;48.808;9.006;2022-07-15T12:02:25;97387.75;;;28.81;34.72
41703;BME280;861;48.808;9.006;2022-07-15T12:05:05;97377.41;;;28.98;35.11
41703;BME280;861;48.808;9.006;2022-07-15T12:07:46;97386.66;;;29.46;34.92
41703;BME280;861;48.808;9.006;2022-07-15T12:10:15;97379.75;;;29.95;34.10
41703;BME280;861;48.808;9.006;2022-07-15T12:13:02;97379.78;;;30.06;33.80
41703;BME280;861;48.808;9.006;2022-07-15T12:15:33;97370.31;;;30.15;33.50
41703;BME280;861;48.808;9.006;2022-07-15T12:18:02;97377.47;;;30.05;33.24
41703;BME280;861;48.808;9.006;2022-07-15T12:20:29;97385.25;;;29.67;33.37
41703;BME280;861;48.808;9.006;2022-07-15T12:23:22;97384.16;;;29.59;34.34
41703;BME280;861;48.808;9.006;2022-07-15T12:26:07;97386.28;;;29.70;33.95
41703;BME280;861;48.808;9.006;2022-07-15T12:28:37;97387.19;;;29.50;34.58
41703;BME280;861;48.808;9.006;2022-07-15T12:31:04;97395.25;;;29.32;34.74
41703;BME280;861;48.808;9.006;2022-07-15T12:33:35;97388.78;;;29.62;34.07
41703;BME280;861;48.808;9.006;2022-07-15T12:36:19;97380.38;;;29.62;34.81
41703;BME280;861;48.808;9.006;2022-07-15T12:39:14;97378.75;;;29.45;35.63
41703;BME280;861;48.808;9.006;2022-07-15T12:41:57;97374.75;;;29.62;34.29
41703;BME280;861;48.808;9.006;2022-07-15T12:44:27;97376.97;;;29.42;34.27
41703;BME280;861;48.808;9.006;2022-07-15T12:47:05;97382.94;;;28.87;35.93
41703;BME280;861;48.808;9.006;2022-07-15T12:49:51;97379.31;;;28.76;34.88
41703;BME280;861;48.808;9.006;2022-07-15T12:55:19;97368.19;;;28.92;35.08
41703;BME280;861;48.808;9.006;2022-07-15T12:57:50;97375.13;;;29.33;34.91
41703;BME280;861;48.808;9.006;2022-07-15T13:00:23;97379.19;;;29.32;34.49
41703;BME280;861;48.808;9.006;2022-07-15T13:03:00;97378.34;;;29.21;35.03
41703;BME280;861;48.808;9.006;2022-07-15T13:05:39;97386.44;;;28.77;35.81
41703;BME280;861;48.808;9.006;2022-07-15T13:08:16;97388.06;;;28.89;35.12
41703;BME280;861;48.808;9.006;2022-07-15T13:10:52;97377.03;;;28.80;35.14
41703;BME280;861;48.808;9.006;2022-07-15T13:13:25;97379.47;;;28.98;34.16
41703;BME280;861;48.808;9.006;2022-07-15T13:15:54;97378.63;;;28.92;35.42
41703;BME280;861;48.808;9.006;2022-07-15T13:18:21;97369.25;;;28.64;35.13
41703;BME280;861;48.808;9.006;2022-07-15T13:20:52;97370.59;;;28.42;35.45
41703;BME280;861;48.808;9.006;2022-07-15T13:23:19;97378.78;;;28.20;35.86
41703;BME280;861;48.808;9.006;2022-07-15T13:25:46;97376.91;;;28.12;36.03
41703;BME280;861;48.808;9.006;2022-07-15T13:28:14;97375.41;;;27.71;36.45
41703;BME280;861;48.808;9.006;2022-07-15T13:30:41;97374.16;;;27.52;36.86
41703;BME280;861;48.808;9.006;2022-07-15T13:33:07;97375.00;;;27.38;37.27
41703;BME280;861;48.808;9.006;2022-07-15T13:35:34;97379.06;;;27.37;37.02
41703;BME280;861;48.808;9.006;2022-07-15T13:38:02;97378.28;;;27.36;36.45
41703;BME280;861;48.808;9.006;2022-07-15T13:40:28;97376.16;;;26.96;38.43
41703;BME280;861;48.808;9.006;2022-07-15T13:42:54;97380.81;;;26.85;38.14
41703;BME280;861;48.808;9.006;2022-07-15T13:45:21;97379.38;;;26.89;37.91
41703;BME280;861;48.808;9.006;2022-07-15T13:47:48;97377.38;;;27.10;37.68
41703;BME280;861;48.808;9.006;2022-07-15T13:50:14;97381.22;;;27.47;37.38
41703;BME280;861;48.808;9.006;2022-07-15T13:53:01;97376.41;;;28.13;36.49
41703;BME280;861;48.808;9.006;2022-07-15T13:55:29;97371.97;;;28.53;35.49
41703;BME280;861;48.808;9.006;2022-07-15T13:57:56;97368.78;;;28.39;35.43
41703;BME280;861;48.808;9.006;2022-07-15T14:00:24;97384.16;;;27.98;35.82
41703;BME280;861;48.808;9.006;2022-07-15T14:02:55;97382.88;;;27.79;36.41